ASA64 PAPG-PAJN
Flight info
| Callsign | ASA64 |
|---|---|
| Flight time | 0h 31m |
| Altitude | 16000 |
| Route | SSR |
| Aircraft | A320/M-SDE3FGHIRWY/LB1 |
Departure
| Time | 2026-05-03 20:32 |
|---|---|
| Airport | Petersburg James A Johnson Airport (PAPG) |
Arrival
| Time | 2026-05-03 21:04 |
|---|---|
| Airport | Juneau International Airport (PAJN) |
| Time | Latitude | Longitude | Altitude | Speed | Heading |
|---|---|---|---|---|---|
| 2026-05-03 20:27 | 56.80561 | -132.93326 | 102 ft | 0 kts | 62° |
| 2026-05-03 20:30 | 56.80555 | -132.93345 | 102 ft | 2 kts | 62° |
| 2026-05-03 20:30 | 56.80548 | -132.93369 | 100 ft | 0 kts | 62° |
| 2026-05-03 20:31 | 56.80530 | -132.93315 | 99 ft | 16 kts | 122° |
| 2026-05-03 20:31 | 56.80446 | -132.93181 | 103 ft | 16 kts | 184° |
| 2026-05-03 20:32 | 56.80392 | -132.93351 | 102 ft | 23 kts | 249° |
| 2026-05-03 20:32 | 56.80237 | -132.94136 | 104 ft | 107 kts | 252° |
| 2026-05-03 20:32 | 56.79925 | -132.95807 | 161 ft | 164 kts | 250° |
| 2026-05-03 20:32 | 56.79565 | -132.97766 | 952 ft | 163 kts | 257° |
| 2026-05-03 20:33 | 56.79723 | -132.99759 | 1817 ft | 165 kts | 308° |
| 2026-05-03 20:33 | 56.80712 | -133.00731 | 2619 ft | 174 kts | 357° |
| 2026-05-03 20:33 | 56.81891 | -132.99913 | 3031 ft | 200 kts | 44° |
| 2026-05-03 20:33 | 56.82490 | -132.97466 | 3359 ft | 231 kts | 86° |
| 2026-05-03 20:34 | 56.82137 | -132.94488 | 3761 ft | 258 kts | 108° |
| 2026-05-03 20:34 | 56.81784 | -132.91228 | 4430 ft | 267 kts | 82° |
| 2026-05-03 20:34 | 56.82453 | -132.88130 | 5255 ft | 265 kts | 46° |
| 2026-05-03 20:34 | 56.83954 | -132.86321 | 6114 ft | 261 kts | 11° |
| 2026-05-03 20:35 | 56.85728 | -132.86443 | 6964 ft | 258 kts | 336° |
| 2026-05-03 20:35 | 56.87105 | -132.88439 | 7826 ft | 257 kts | 302° |
| 2026-05-03 20:35 | 56.87897 | -132.91363 | 8787 ft | 257 kts | 295° |
| 2026-05-03 20:35 | 56.88639 | -132.94322 | 9823 ft | 256 kts | 295° |
| 2026-05-03 20:36 | 56.89370 | -132.97250 | 10723 ft | 259 kts | 294° |
| 2026-05-03 20:36 | 56.90149 | -133.00372 | 10982 ft | 281 kts | 294° |
| 2026-05-03 20:36 | 56.90991 | -133.03752 | 11213 ft | 302 kts | 294° |
| 2026-05-03 20:36 | 56.91870 | -133.07296 | 11914 ft | 308 kts | 294° |
| 2026-05-03 20:37 | 56.92880 | -133.10768 | 12687 ft | 313 kts | 305° |
| 2026-05-03 20:37 | 56.94430 | -133.13615 | 13433 ft | 318 kts | 314° |
| 2026-05-03 20:37 | 56.96086 | -133.16337 | 14089 ft | 322 kts | 315° |
| 2026-05-03 20:37 | 56.97764 | -133.19076 | 14763 ft | 325 kts | 315° |
| 2026-05-03 20:38 | 56.99462 | -133.21852 | 15472 ft | 328 kts | 315° |
| 2026-05-03 20:38 | 57.01174 | -133.24656 | 16124 ft | 332 kts | 314° |
| 2026-05-03 20:38 | 57.02876 | -133.27457 | 16747 ft | 335 kts | 314° |
| 2026-05-03 20:38 | 57.04616 | -133.30338 | 17387 ft | 338 kts | 314° |
| 2026-05-03 20:39 | 57.06374 | -133.33250 | 18005 ft | 342 kts | 314° |
| 2026-05-03 20:39 | 57.08148 | -133.36190 | 18606 ft | 346 kts | 314° |
| 2026-05-03 20:39 | 57.09943 | -133.39166 | 19126 ft | 349 kts | 314° |
| 2026-05-03 20:39 | 57.11755 | -133.42175 | 19351 ft | 351 kts | 314° |
| 2026-05-03 20:40 | 57.13579 | -133.45210 | 19414 ft | 359 kts | 314° |
| 2026-05-03 20:40 | 57.14812 | -133.47273 | 19416 ft | 363 kts | 314° |
| 2026-05-03 20:40 | 57.17296 | -133.51428 | 19416 ft | 365 kts | 314° |
| 2026-05-03 20:40 | 57.19180 | -133.54567 | 19416 ft | 365 kts | 314° |
| 2026-05-03 20:41 | 57.21060 | -133.57701 | 19433 ft | 365 kts | 314° |
| 2026-05-03 20:41 | 57.22940 | -133.60844 | 19424 ft | 364 kts | 314° |
| 2026-05-03 20:41 | 57.24819 | -133.63990 | 19424 ft | 364 kts | 314° |
| 2026-05-03 20:41 | 57.26692 | -133.67134 | 19424 ft | 364 kts | 314° |
| 2026-05-03 20:42 | 57.27933 | -133.69222 | 19427 ft | 364 kts | 314° |
| 2026-05-03 20:42 | 57.29804 | -133.72381 | 19427 ft | 364 kts | 314° |
| 2026-05-03 20:42 | 57.31675 | -133.75547 | 19428 ft | 364 kts | 314° |
| 2026-05-03 20:42 | 57.34156 | -133.79734 | 19430 ft | 364 kts | 314° |
| 2026-05-03 20:43 | 57.36030 | -133.82896 | 19431 ft | 364 kts | 314° |
| 2026-05-03 20:43 | 57.37902 | -133.86064 | 19432 ft | 364 kts | 314° |
| 2026-05-03 20:43 | 57.39164 | -133.88203 | 19426 ft | 364 kts | 314° |
| 2026-05-03 20:43 | 57.41008 | -133.91333 | 19426 ft | 364 kts | 314° |
| 2026-05-03 20:44 | 57.42874 | -133.94508 | 19449 ft | 364 kts | 313° |
| 2026-05-03 20:44 | 57.44739 | -133.97691 | 19444 ft | 364 kts | 314° |
| 2026-05-03 20:44 | 57.46605 | -134.00870 | 19436 ft | 364 kts | 314° |
| 2026-05-03 20:44 | 57.48474 | -134.04060 | 19425 ft | 365 kts | 314° |
| 2026-05-03 20:45 | 57.50343 | -134.07263 | 19429 ft | 365 kts | 314° |
| 2026-05-03 20:45 | 57.52210 | -134.10468 | 19430 ft | 366 kts | 313° |
| 2026-05-03 20:45 | 57.54679 | -134.14712 | 19429 ft | 364 kts | 313° |
| 2026-05-03 20:45 | 57.55936 | -134.16873 | 19419 ft | 364 kts | 313° |
| 2026-05-03 20:46 | 57.57773 | -134.20033 | 19411 ft | 364 kts | 314° |
| 2026-05-03 20:46 | 57.59633 | -134.23237 | 19414 ft | 365 kts | 313° |
| 2026-05-03 20:46 | 57.61496 | -134.26454 | 19413 ft | 365 kts | 313° |
| 2026-05-03 20:46 | 57.63355 | -134.29666 | 19416 ft | 364 kts | 313° |
| 2026-05-03 20:47 | 57.65213 | -134.32878 | 19418 ft | 364 kts | 313° |
| 2026-05-03 20:47 | 57.67071 | -134.36096 | 19417 ft | 365 kts | 313° |
| 2026-05-03 20:47 | 57.68935 | -134.39331 | 19416 ft | 365 kts | 313° |
| 2026-05-03 20:47 | 57.70794 | -134.42562 | 19403 ft | 364 kts | 313° |
| 2026-05-03 20:48 | 57.72646 | -134.45789 | 19403 ft | 364 kts | 313° |
| 2026-05-03 20:48 | 57.74476 | -134.48991 | 19407 ft | 365 kts | 313° |
| 2026-05-03 20:48 | 57.76324 | -134.52217 | 19394 ft | 357 kts | 313° |
| 2026-05-03 20:48 | 57.78104 | -134.55317 | 19231 ft | 344 kts | 313° |
| 2026-05-03 20:49 | 57.79840 | -134.58349 | 18869 ft | 338 kts | 313° |
| 2026-05-03 20:49 | 57.81547 | -134.61340 | 18412 ft | 335 kts | 312° |
| 2026-05-03 20:49 | 57.83242 | -134.64317 | 17877 ft | 333 kts | 313° |
| 2026-05-03 20:49 | 57.84922 | -134.67277 | 17417 ft | 330 kts | 313° |
| 2026-05-03 20:50 | 57.86584 | -134.70207 | 16943 ft | 327 kts | 312° |
| 2026-05-03 20:50 | 57.88243 | -134.73137 | 16454 ft | 327 kts | 312° |
| 2026-05-03 20:50 | 57.89870 | -134.76019 | 16010 ft | 325 kts | 312° |
| 2026-05-03 20:50 | 57.91511 | -134.78926 | 15542 ft | 323 kts | 312° |
| 2026-05-03 20:51 | 57.93141 | -134.81812 | 15081 ft | 321 kts | 313° |
| 2026-05-03 20:51 | 57.94768 | -134.84691 | 14628 ft | 320 kts | 313° |
| 2026-05-03 20:51 | 57.96385 | -134.87551 | 14176 ft | 318 kts | 313° |
| 2026-05-03 20:51 | 57.97991 | -134.90402 | 13684 ft | 316 kts | 312° |
| 2026-05-03 20:52 | 57.99582 | -134.93236 | 13226 ft | 314 kts | 313° |
| 2026-05-03 20:52 | 58.01158 | -134.96055 | 12888 ft | 310 kts | 312° |
| 2026-05-03 20:52 | 58.02697 | -134.98802 | 12426 ft | 308 kts | 312° |
| 2026-05-03 20:52 | 58.04246 | -135.01564 | 11966 ft | 306 kts | 313° |
| 2026-05-03 20:53 | 58.05789 | -135.04317 | 11532 ft | 303 kts | 313° |
| 2026-05-03 20:53 | 58.07313 | -135.07039 | 11094 ft | 301 kts | 312° |
| 2026-05-03 20:53 | 58.08826 | -135.09749 | 10651 ft | 299 kts | 312° |
| 2026-05-03 20:53 | 58.10325 | -135.12448 | 10414 ft | 295 kts | 312° |
| 2026-05-03 20:54 | 58.11774 | -135.15054 | 10389 ft | 279 kts | 312° |
| 2026-05-03 20:54 | 58.14442 | -135.19837 | 10320 ft | 260 kts | 312° |
| 2026-05-03 20:54 | 58.15927 | -135.21832 | 9645 ft | 266 kts | 329° |
| 2026-05-03 20:55 | 58.17722 | -135.22779 | 8989 ft | 273 kts | 349° |
| 2026-05-03 20:55 | 58.19625 | -135.22434 | 8561 ft | 275 kts | 11° |
| 2026-05-03 20:55 | 58.21326 | -135.20907 | 8208 ft | 268 kts | 26° |
| 2026-05-03 20:55 | 58.23000 | -135.18888 | 6145 ft | 309 kts | 29° |
| 2026-05-03 20:56 | 58.24764 | -135.16719 | 5110 ft | 306 kts | 33° |
| 2026-05-03 20:56 | 58.26464 | -135.14295 | 4246 ft | 297 kts | 37° |
| 2026-05-03 20:56 | 58.27932 | -135.12060 | 3857 ft | 244 kts | 38° |
| 2026-05-03 20:56 | 58.29110 | -135.10266 | 3553 ft | 202 kts | 38° |
| 2026-05-03 20:57 | 58.30163 | -135.08694 | 3022 ft | 187 kts | 38° |
| 2026-05-03 20:57 | 58.31177 | -135.07204 | 2388 ft | 182 kts | 38° |
| 2026-05-03 20:57 | 58.32173 | -135.05752 | 1787 ft | 178 kts | 38° |
| 2026-05-03 20:57 | 58.33112 | -135.04395 | 1784 ft | 167 kts | 37° |
| 2026-05-03 20:58 | 58.34029 | -135.03078 | 1860 ft | 165 kts | 37° |
| 2026-05-03 20:58 | 58.34945 | -135.01767 | 1932 ft | 165 kts | 37° |
| 2026-05-03 20:58 | 58.35862 | -135.00458 | 1969 ft | 165 kts | 37° |
| 2026-05-03 20:58 | 58.36767 | -134.99168 | 1980 ft | 164 kts | 37° |
| 2026-05-03 20:59 | 58.37684 | -134.97865 | 1981 ft | 165 kts | 37° |
| 2026-05-03 20:59 | 58.38526 | -134.96400 | 1989 ft | 164 kts | 49° |
| 2026-05-03 20:59 | 58.39176 | -134.94615 | 1995 ft | 163 kts | 63° |
| 2026-05-03 20:59 | 58.39597 | -134.92612 | 1981 ft | 163 kts | 76° |
| 2026-05-03 21:00 | 58.39781 | -134.90487 | 1984 ft | 162 kts | 88° |
| 2026-05-03 21:00 | 58.39769 | -134.89069 | 1979 ft | 162 kts | 96° |
| 2026-05-03 21:00 | 58.39466 | -134.86353 | 1804 ft | 150 kts | 106° |
| 2026-05-03 21:00 | 58.39204 | -134.84463 | 1696 ft | 150 kts | 106° |
| 2026-05-03 21:01 | 58.38939 | -134.82537 | 1693 ft | 150 kts | 106° |
| 2026-05-03 21:01 | 58.38674 | -134.80612 | 1694 ft | 151 kts | 106° |
| 2026-05-03 21:01 | 58.38408 | -134.78679 | 1693 ft | 151 kts | 106° |
| 2026-05-03 21:01 | 58.38142 | -134.76749 | 1692 ft | 151 kts | 106° |
| 2026-05-03 21:02 | 58.37875 | -134.74819 | 1686 ft | 151 kts | 106° |
| 2026-05-03 21:02 | 58.37608 | -134.72891 | 1685 ft | 151 kts | 105° |
| 2026-05-03 21:02 | 58.37333 | -134.70906 | 1693 ft | 160 kts | 105° |
| 2026-05-03 21:02 | 58.37049 | -134.68848 | 1673 ft | 159 kts | 105° |
| 2026-05-03 21:03 | 58.36781 | -134.66863 | 1450 ft | 151 kts | 105° |
| 2026-05-03 21:03 | 58.36534 | -134.64967 | 1169 ft | 147 kts | 104° |
| 2026-05-03 21:03 | 58.36258 | -134.63061 | 751 ft | 152 kts | 109° |
| 2026-05-03 21:03 | 58.35984 | -134.61100 | 408 ft | 153 kts | 105° |
| 2026-05-03 21:04 | 58.35711 | -134.59220 | 54 ft | 142 kts | 104° |
| 2026-05-03 21:04 | 58.35493 | -134.57640 | 36 ft | 98 kts | 105° |
| 2026-05-03 21:04 | 58.35391 | -134.56937 | 35 ft | 31 kts | 105° |
| 2026-05-03 21:04 | 58.35450 | -134.56698 | 34 ft | 21 kts | 354° |
| 2026-05-03 21:05 | 58.35490 | -134.56793 | 32 ft | 0 kts | 271° |